Airfield :
LOGIN :

Register | Disclaimer

   EN    FR    IT 

 










Legend :    VFR   Marginal VFR   IFR   Intensive IFR   Very Intensive IFR
Visi :
Ceiling :
>= 8 km
>= 3000ft
5 to 8 km
1000 to 3000 ft
1500m to 5 km
500 to 1000 ft
800 to 1500m
200 to 500 ft
< 800m
< 200 ft
Symbols :   Thunderstorms  Fog  Heavy snow  Heavy precipitations  Wind > 20 kt
SIGMETs :     Misc.  Thunderstorms  Icing  Turbulence  Mountain Waves  Volcanic Ashes






- Airport Elevation : 286 ft
- IATA code : FFD


EGVA - RAF Fairford

CURRENT METAR :
  • 121316Z AUTO 19013G19KT 9999 -RA SCT014 OVC042 09/08 A2898 RMK AO2 PRESFR SLP819 $

EXPIRED METARs :
  • 121256Z AUTO 19012KT 9999 -RA BKN013 BKN018 09/09 A2900 RMK AO2 CIG 013V020 BKN013 V SCT SLP826 P0003 T00900085 $
  • 121251Z AUTO 19011KT 9999 -RA BKN013 BKN020 09/09 A2900 RMK AO2 CIG 013V019 BKN013 V FEW SLP826 $
  • 121231Z AUTO 20013KT 9999 -RA SCT011 SCT017 09/09 A2902 RMK AO2 SLP833 $
  • 121201Z AUTO 18009KT 9999 -RA FEW006 BKN013 OVC021 09/09 A2904 RMK AO2 SLP840 $
  • 121147Z AUTO 18008KT 9999 -RA SCT007 BKN013 OVC031 08/08 A2906 RMK AO2 RAB1056E08RAB12 CIG 007V014 SLP847 $
  • 121137Z AUTO 16009KT 9999 -RA BKN009 BKN014 OVC025 08/08 A2907 RMK AO2 RAB1056E08RAB12 CIG 009V014 SLP850 $
  • 121127Z AUTO 15010KT 9999 -RA SCT008 BKN014 OVC025 08/08 A2908 RMK AO2 RAB1056E08RAB12 SLP853 $
  • 121112Z AUTO 17012KT 9999 -RA SCT010 OVC016 08/08 A2909 RMK AO2 RAB1056E08RAB12 OVC V BKN CIG 012 RWY09 SLP857 $
  • 121051Z AUTO 16014KT 9999 BKN015 BKN020 OVC029 08/08 A2911 RMK AO2 RAB14E51 CIG 015V019 CIG 010 RWY09 PRESFR SLP864 $
  • 121040Z AUTO 16013KT 9999 -RA FEW011 BKN019 OVC033 08/07 A2913 RMK AO2 RAB14 CIG 018 RWY09 SLP870 $

Expired Forecast.



MET'MAP, your aeronautical weather chart ! - Copyright ORBIFLY December 2007 - Disclaimer

ORBIFLY MET'MAP TEAM :

Programming & Development : Alexandra Zaïnal
Concept & original design : Baudouin d'Aumeries
Assistance for programming : Marc-Olivier Méhu
Technical & hardware support : Manuel Goepfert

Contact : metmap@orbifly.com




SOURCES & CREDITS :

   NOAA